Rinard Mills, Ohio
Current Conditions -  °F | °C
As of 11:53 AM on Thursday 23 Oct 2014 (Local Time) from KPKB Reporting Station
Overcast Overcast  
Wind Chill: 52°   Ceiling: 2000
Heat Index: 52°   Visibility: 10mi
Dew Point: 43°   Wind: 7mph
Humidity: 71%   Direction: 320°NW
Pressure: 30.23"   Gusts: NA
Location:  39.5286°N, 81.1317°W
Report Text: KPKB 231553Z 32006KT 10SM OVC020 11/06 A3023 RMK AO2 SLP238 T01110061
Loading
Personal Weather Stations






























Interactive Weather Map
Tropical Storm Tracking
New forecast layout! Learn more

10-Day Weather Forecast

Advertisements
Track Severe Weather on mobile